sensor_id;sensor_type;location;lat;lon;timestamp;temperature;humidity
51733;DHT22;39139;53.144;6.244;2022-11-20T00:00:51;-0.80;99.90
51733;DHT22;39139;53.144;6.244;2022-11-20T00:03:17;-0.80;99.90
51733;DHT22;39139;53.144;6.244;2022-11-20T00:05:43;-0.80;99.90
51733;DHT22;39139;53.144;6.244;2022-11-20T00:08:09;-0.80;99.90
51733;DHT22;39139;53.144;6.244;2022-11-20T00:10:41;-0.90;99.90
51733;DHT22;39139;53.144;6.244;2022-11-20T00:13:07;-0.80;99.90
51733;DHT22;39139;53.144;6.244;2022-11-20T00:15:33;-0.90;99.90
51733;DHT22;39139;53.144;6.244;2022-11-20T00:17:59;-1.10;99.90
51733;DHT22;39139;53.144;6.244;2022-11-20T00:20:25;-0.80;99.90
51733;DHT22;39139;53.144;6.244;2022-11-20T00:22:51;-0.80;99.90
51733;DHT22;39139;53.144;6.244;2022-11-20T00:25:17;-0.80;99.90
51733;DHT22;39139;53.144;6.244;2022-11-20T00:27:42;-0.70;99.90
51733;DHT22;39139;53.144;6.244;2022-11-20T00:30:08;-0.70;99.90
51733;DHT22;39139;53.144;6.244;2022-11-20T00:32:34;-0.80;99.90
51733;DHT22;39139;53.144;6.244;2022-11-20T00:35:00;-0.60;99.90
51733;DHT22;39139;53.144;6.244;2022-11-20T00:37:26;-0.70;99.90
51733;DHT22;39139;53.144;6.244;2022-11-20T00:39:53;-0.70;99.90
51733;DHT22;39139;53.144;6.244;2022-11-20T00:42:18;-0.60;99.90
51733;DHT22;39139;53.144;6.244;2022-11-20T00:44:44;-0.60;99.90
51733;DHT22;39139;53.144;6.244;2022-11-20T00:47:09;-0.60;99.90
51733;DHT22;39139;53.144;6.244;2022-11-20T00:49:35;-0.60;99.90
51733;DHT22;39139;53.144;6.244;2022-11-20T00:52:01;-0.60;99.90
51733;DHT22;39139;53.144;6.244;2022-11-20T00:54:26;-0.50;99.90
51733;DHT22;39139;53.144;6.244;2022-11-20T00:56:55;-0.50;99.90
51733;DHT22;39139;53.144;6.244;2022-11-20T00:59:21;-1.00;99.90
51733;DHT22;39139;53.144;6.244;2022-11-20T01:01:46;-0.60;99.90
51733;DHT22;39139;53.144;6.244;2022-11-20T01:04:12;-0.50;99.90
51733;DHT22;39139;53.144;6.244;2022-11-20T01:06:39;-0.50;99.90
51733;DHT22;39139;53.144;6.244;2022-11-20T01:09:07;-0.50;99.90
51733;DHT22;39139;53.144;6.244;2022-11-20T01:11:35;-0.50;99.90
51733;DHT22;39139;53.144;6.244;2022-11-20T01:14:03;-0.50;99.90
51733;DHT22;39139;53.144;6.244;2022-11-20T01:16:32;-0.40;99.90
51733;DHT22;39139;53.144;6.244;2022-11-20T01:19:00;-0.40;99.90
51733;DHT22;39139;53.144;6.244;2022-11-20T01:21:34;-0.40;99.90
51733;DHT22;39139;53.144;6.244;2022-11-20T01:24:00;0.10;99.90
51733;DHT22;39139;53.144;6.244;2022-11-20T01:26:32;-0.50;99.90
51733;DHT22;39139;53.144;6.244;2022-11-20T01:28:58;-0.40;99.90
51733;DHT22;39139;53.144;6.244;2022-11-20T01:31:32;-0.40;99.90
51733;DHT22;39139;53.144;6.244;2022-11-20T01:34:01;-0.40;99.90
51733;DHT22;39139;53.144;6.244;2022-11-20T01:36:29;-0.40;99.90
51733;DHT22;39139;53.144;6.244;2022-11-20T01:38:58;0.10;99.90
51733;DHT22;39139;53.144;6.244;2022-11-20T01:41:25;-0.40;99.90
51733;DHT22;39139;53.144;6.244;2022-11-20T01:44:12;-0.40;99.90
51733;DHT22;39139;53.144;6.244;2022-11-20T01:46:47;-0.30;99.90
51733;DHT22;39139;53.144;6.244;2022-11-20T01:49:30;-0.30;99.90
51733;DHT22;39139;53.144;6.244;2022-11-20T01:52:03;-0.30;99.90
51733;DHT22;39139;53.144;6.244;2022-11-20T01:54:42;-0.30;99.90
51733;DHT22;39139;53.144;6.244;2022-11-20T01:57:11;-0.20;99.90
51733;DHT22;39139;53.144;6.244;2022-11-20T01:59:41;-0.20;99.90
51733;DHT22;39139;53.144;6.244;2022-11-20T02:02:09;-0.30;99.90
51733;DHT22;39139;53.144;6.244;2022-11-20T02:04:34;-0.30;99.90
51733;DHT22;39139;53.144;6.244;2022-11-20T02:07:01;-0.20;99.90
51733;DHT22;39139;53.144;6.244;2022-11-20T02:09:28;-0.40;99.90
51733;DHT22;39139;53.144;6.244;2022-11-20T02:11:54;-0.20;99.90
51733;DHT22;39139;53.144;6.244;2022-11-20T02:14:21;-0.20;99.90
51733;DHT22;39139;53.144;6.244;2022-11-20T02:16:48;-0.30;99.90
51733;DHT22;39139;53.144;6.244;2022-11-20T02:19:35;-0.20;99.90
51733;DHT22;39139;53.144;6.244;2022-11-20T02:24:33;-0.20;99.90
51733;DHT22;39139;53.144;6.244;2022-11-20T02:27:07;-0.30;99.90
51733;DHT22;39139;53.144;6.244;2022-11-20T02:29:53;-0.20;99.90
51733;DHT22;39139;53.144;6.244;2022-11-20T02:32:28;-0.20;99.90
51733;DHT22;39139;53.144;6.244;2022-11-20T02:34:54;-0.20;99.90
51733;DHT22;39139;53.144;6.244;2022-11-20T02:37:21;-0.20;99.90
51733;DHT22;39139;53.144;6.244;2022-11-20T02:39:48;-0.30;99.90
51733;DHT22;39139;53.144;6.244;2022-11-20T02:42:14;0.20;99.90
51733;DHT22;39139;53.144;6.244;2022-11-20T02:44:40;-0.30;99.90
51733;DHT22;39139;53.144;6.244;2022-11-20T02:47:06;-0.20;99.90
51733;DHT22;39139;53.144;6.244;2022-11-20T02:49:32;-0.20;99.90
51733;DHT22;39139;53.144;6.244;2022-11-20T02:51:58;-0.10;99.90
51733;DHT22;39139;53.144;6.244;2022-11-20T02:54:24;-0.20;99.90
51733;DHT22;39139;53.144;6.244;2022-11-20T02:56:50;-0.10;99.90
51733;DHT22;39139;53.144;6.244;2022-11-20T02:59:16;-0.20;99.90
51733;DHT22;39139;53.144;6.244;2022-11-20T03:01:42;-0.30;99.90
51733;DHT22;39139;53.144;6.244;2022-11-20T03:04:08;-0.20;99.90
51733;DHT22;39139;53.144;6.244;2022-11-20T03:06:34;-0.10;99.90
51733;DHT22;39139;53.144;6.244;2022-11-20T03:09:00;-0.10;99.90
51733;DHT22;39139;53.144;6.244;2022-11-20T03:11:25;-0.10;99.90
51733;DHT22;39139;53.144;6.244;2022-11-20T03:13:51;-0.10;99.90
51733;DHT22;39139;53.144;6.244;2022-11-20T03:16:19;-0.30;99.90
51733;DHT22;39139;53.144;6.244;2022-11-20T03:18:45;0.00;99.90
51733;DHT22;39139;53.144;6.244;2022-11-20T03:21:14;-0.10;99.90
51733;DHT22;39139;53.144;6.244;2022-11-20T03:23:40;0.00;99.90
51733;DHT22;39139;53.144;6.244;2022-11-20T03:26:11;0.00;99.90
51733;DHT22;39139;53.144;6.244;2022-11-20T03:28:38;-0.10;99.90
51733;DHT22;39139;53.144;6.244;2022-11-20T03:31:14;0.00;99.90
51733;DHT22;39139;53.144;6.244;2022-11-20T03:33:41;0.00;99.90
51733;DHT22;39139;53.144;6.244;2022-11-20T03:36:09;0.00;99.90
51733;DHT22;39139;53.144;6.244;2022-11-20T03:38:36;-0.10;99.90
51733;DHT22;39139;53.144;6.244;2022-11-20T03:41:04;-0.10;99.90
51733;DHT22;39139;53.144;6.244;2022-11-20T03:43:30;0.00;99.90
51733;DHT22;39139;53.144;6.244;2022-11-20T03:45:56;0.00;99.90
51733;DHT22;39139;53.144;6.244;2022-11-20T03:48:22;0.00;99.90
51733;DHT22;39139;53.144;6.244;2022-11-20T03:50:47;0.00;99.90
51733;DHT22;39139;53.144;6.244;2022-11-20T03:53:14;0.10;99.90
51733;DHT22;39139;53.144;6.244;2022-11-20T03:55:40;0.00;99.90
51733;DHT22;39139;53.144;6.244;2022-11-20T03:58:05;0.00;99.90
51733;DHT22;39139;53.144;6.244;2022-11-20T04:00:31;1.30;99.90
51733;DHT22;39139;53.144;6.244;2022-11-20T04:03:00;0.10;99.90
51733;DHT22;39139;53.144;6.244;2022-11-20T04:05:27;0.10;99.90
51733;DHT22;39139;53.144;6.244;2022-11-20T04:07:52;0.10;99.90
51733;DHT22;39139;53.144;6.244;2022-11-20T04:10:18;0.00;99.90
51733;DHT22;39139;53.144;6.244;2022-11-20T04:12:43;0.00;99.90
51733;DHT22;39139;53.144;6.244;2022-11-20T04:15:09;0.10;99.90
51733;DHT22;39139;53.144;6.244;2022-11-20T04:17:35;0.00;99.90
51733;DHT22;39139;53.144;6.244;2022-11-20T04:20:01;0.00;99.90
51733;DHT22;39139;53.144;6.244;2022-11-20T04:22:27;0.00;99.90
51733;DHT22;39139;53.144;6.244;2022-11-20T04:24:53;0.10;99.90
51733;DHT22;39139;53.144;6.244;2022-11-20T04:27:18;0.00;99.90
51733;DHT22;39139;53.144;6.244;2022-11-20T04:29:44;0.10;99.90
51733;DHT22;39139;53.144;6.244;2022-11-20T04:32:09;0.10;99.90
51733;DHT22;39139;53.144;6.244;2022-11-20T04:34:35;0.10;99.90
51733;DHT22;39139;53.144;6.244;2022-11-20T04:37:01;0.10;99.90
51733;DHT22;39139;53.144;6.244;2022-11-20T04:39:26;0.10;99.90
51733;DHT22;39139;53.144;6.244;2022-11-20T04:41:52;0.80;99.90
51733;DHT22;39139;53.144;6.244;2022-11-20T04:44:37;0.20;99.90
51733;DHT22;39139;53.144;6.244;2022-11-20T04:47:03;0.20;99.90
51733;DHT22;39139;53.144;6.244;2022-11-20T04:49:29;0.20;99.90
51733;DHT22;39139;53.144;6.244;2022-11-20T04:51:57;0.20;99.90
51733;DHT22;39139;53.144;6.244;2022-11-20T04:54:22;0.20;99.90
51733;DHT22;39139;53.144;6.244;2022-11-20T04:56:49;0.20;99.90
51733;DHT22;39139;53.144;6.244;2022-11-20T04:59:14;0.20;99.90
51733;DHT22;39139;53.144;6.244;2022-11-20T05:01:40;0.20;99.90
51733;DHT22;39139;53.144;6.244;2022-11-20T05:04:05;0.60;99.90
51733;DHT22;39139;53.144;6.244;2022-11-20T05:06:31;0.20;99.90
51733;DHT22;39139;53.144;6.244;2022-11-20T05:08:57;0.20;99.90
51733;DHT22;39139;53.144;6.244;2022-11-20T05:11:23;0.20;99.90
51733;DHT22;39139;53.144;6.244;2022-11-20T05:13:50;0.20;99.90
51733;DHT22;39139;53.144;6.244;2022-11-20T05:16:18;0.20;99.90
51733;DHT22;39139;53.144;6.244;2022-11-20T05:18:44;1.30;99.90
51733;DHT22;39139;53.144;6.244;2022-11-20T05:21:10;0.20;99.90
51733;DHT22;39139;53.144;6.244;2022-11-20T05:23:37;0.20;99.90
51733;DHT22;39139;53.144;6.244;2022-11-20T05:26:03;0.20;99.90
51733;DHT22;39139;53.144;6.244;2022-11-20T05:28:30;0.20;99.90
51733;DHT22;39139;53.144;6.244;2022-11-20T05:30:56;0.20;99.90
51733;DHT22;39139;53.144;6.244;2022-11-20T05:33:21;0.20;99.90
51733;DHT22;39139;53.144;6.244;2022-11-20T05:35:47;0.20;99.90
51733;DHT22;39139;53.144;6.244;2022-11-20T05:38:14;0.10;99.90
51733;DHT22;39139;53.144;6.244;2022-11-20T05:40:40;0.20;99.90
51733;DHT22;39139;53.144;6.244;2022-11-20T05:43:05;0.10;99.90
51733;DHT22;39139;53.144;6.244;2022-11-20T05:45:31;0.30;99.90
51733;DHT22;39139;53.144;6.244;2022-11-20T05:48:00;0.20;99.90
51733;DHT22;39139;53.144;6.244;2022-11-20T05:50:27;0.20;99.90
51733;DHT22;39139;53.144;6.244;2022-11-20T05:52:53;0.30;99.90
51733;DHT22;39139;53.144;6.244;2022-11-20T05:55:18;0.30;99.90
51733;DHT22;39139;53.144;6.244;2022-11-20T05:57:44;0.30;99.90
51733;DHT22;39139;53.144;6.244;2022-11-20T06:00:10;0.20;99.90
51733;DHT22;39139;53.144;6.244;2022-11-20T06:02:36;0.30;99.90
51733;DHT22;39139;53.144;6.244;2022-11-20T06:05:02;0.30;99.90
51733;DHT22;39139;53.144;6.244;2022-11-20T06:07:28;0.30;99.90
51733;DHT22;39139;53.144;6.244;2022-11-20T06:09:53;0.30;99.90
51733;DHT22;39139;53.144;6.244;2022-11-20T06:12:19;0.30;99.90
51733;DHT22;39139;53.144;6.244;2022-11-20T06:14:44;0.60;99.90
51733;DHT22;39139;53.144;6.244;2022-11-20T06:17:10;0.30;99.90
51733;DHT22;39139;53.144;6.244;2022-11-20T06:19:35;0.30;99.90
51733;DHT22;39139;53.144;6.244;2022-11-20T06:22:01;0.30;99.90
51733;DHT22;39139;53.144;6.244;2022-11-20T06:24:27;0.30;99.90
51733;DHT22;39139;53.144;6.244;2022-11-20T06:26:52;0.30;99.90
51733;DHT22;39139;53.144;6.244;2022-11-20T06:29:18;0.30;99.90
51733;DHT22;39139;53.144;6.244;2022-11-20T06:31:43;0.30;99.90
51733;DHT22;39139;53.144;6.244;2022-11-20T06:34:11;0.30;99.90
51733;DHT22;39139;53.144;6.244;2022-11-20T06:36:36;0.40;99.90
51733;DHT22;39139;53.144;6.244;2022-11-20T06:39:02;0.40;99.90
51733;DHT22;39139;53.144;6.244;2022-11-20T06:41:28;0.30;99.90
51733;DHT22;39139;53.144;6.244;2022-11-20T06:43:54;0.40;99.90
51733;DHT22;39139;53.144;6.244;2022-11-20T06:46:20;0.40;99.90
51733;DHT22;39139;53.144;6.244;2022-11-20T06:48:46;0.30;99.90
51733;DHT22;39139;53.144;6.244;2022-11-20T06:51:12;0.30;99.90
51733;DHT22;39139;53.144;6.244;2022-11-20T06:53:38;0.40;99.90
51733;DHT22;39139;53.144;6.244;2022-11-20T06:56:05;0.30;99.90
51733;DHT22;39139;53.144;6.244;2022-11-20T06:58:32;0.40;99.90
51733;DHT22;39139;53.144;6.244;2022-11-20T07:01:07;0.40;99.90
51733;DHT22;39139;53.144;6.244;2022-11-20T07:03:34;0.30;99.90
51733;DHT22;39139;53.144;6.244;2022-11-20T07:06:00;0.30;99.90
51733;DHT22;39139;53.144;6.244;2022-11-20T07:08:26;0.40;99.90
51733;DHT22;39139;53.144;6.244;2022-11-20T07:10:52;0.30;99.90
51733;DHT22;39139;53.144;6.244;2022-11-20T07:13:18;0.40;99.90
51733;DHT22;39139;53.144;6.244;2022-11-20T07:15:43;0.60;99.90
51733;DHT22;39139;53.144;6.244;2022-11-20T07:18:09;0.50;99.90
51733;DHT22;39139;53.144;6.244;2022-11-20T07:20:35;0.40;99.90
51733;DHT22;39139;53.144;6.244;2022-11-20T07:23:00;0.40;99.90
51733;DHT22;39139;53.144;6.244;2022-11-20T07:25:27;0.40;99.90
51733;DHT22;39139;53.144;6.244;2022-11-20T07:27:56;0.30;99.90
51733;DHT22;39139;53.144;6.244;2022-11-20T07:30:21;0.30;99.90
51733;DHT22;39139;53.144;6.244;2022-11-20T07:32:50;0.30;99.90
51733;DHT22;39139;53.144;6.244;2022-11-20T07:35:16;0.30;99.90
51733;DHT22;39139;53.144;6.244;2022-11-20T07:37:42;0.30;99.90
51733;DHT22;39139;53.144;6.244;2022-11-20T07:40:08;0.40;99.90
51733;DHT22;39139;53.144;6.244;2022-11-20T07:42:33;0.30;99.90
51733;DHT22;39139;53.144;6.244;2022-11-20T07:44:59;0.30;99.90
51733;DHT22;39139;53.144;6.244;2022-11-20T07:47:24;0.30;99.90
51733;DHT22;39139;53.144;6.244;2022-11-20T07:49:50;0.30;99.90
51733;DHT22;39139;53.144;6.244;2022-11-20T07:52:16;0.30;99.90
51733;DHT22;39139;53.144;6.244;2022-11-20T07:54:41;0.30;99.90
51733;DHT22;39139;53.144;6.244;2022-11-20T07:57:07;0.30;99.90
51733;DHT22;39139;53.144;6.244;2022-11-20T07:59:33;0.30;99.90
51733;DHT22;39139;53.144;6.244;2022-11-20T08:02:01;0.40;99.90
51733;DHT22;39139;53.144;6.244;2022-11-20T08:04:27;0.30;99.90
51733;DHT22;39139;53.144;6.244;2022-11-20T08:06:52;0.40;99.90
51733;DHT22;39139;53.144;6.244;2022-11-20T08:09:18;1.50;99.90
51733;DHT22;39139;53.144;6.244;2022-11-20T08:11:44;0.30;99.90
51733;DHT22;39139;53.144;6.244;2022-11-20T08:14:28;0.40;99.90
51733;DHT22;39139;53.144;6.244;2022-11-20T08:16:54;0.40;99.90
51733;DHT22;39139;53.144;6.244;2022-11-20T08:19:19;0.40;99.90
51733;DHT22;39139;53.144;6.244;2022-11-20T08:21:45;0.50;99.90
51733;DHT22;39139;53.144;6.244;2022-11-20T08:24:11;0.40;99.90
51733;DHT22;39139;53.144;6.244;2022-11-20T08:26:38;0.40;99.90
51733;DHT22;39139;53.144;6.244;2022-11-20T08:29:05;0.40;99.90
51733;DHT22;39139;53.144;6.244;2022-11-20T08:31:31;0.40;99.90
51733;DHT22;39139;53.144;6.244;2022-11-20T08:33:57;0.40;99.90
51733;DHT22;39139;53.144;6.244;2022-11-20T08:36:24;0.40;99.90
51733;DHT22;39139;53.144;6.244;2022-11-20T08:38:54;0.40;99.90
51733;DHT22;39139;53.144;6.244;2022-11-20T08:41:21;0.40;99.90
51733;DHT22;39139;53.144;6.244;2022-11-20T08:43:50;0.40;99.90
51733;DHT22;39139;53.144;6.244;2022-11-20T08:46:16;0.40;99.90
51733;DHT22;39139;53.144;6.244;2022-11-20T08:48:43;0.50;99.90
51733;DHT22;39139;53.144;6.244;2022-11-20T08:51:09;0.40;99.90
51733;DHT22;39139;53.144;6.244;2022-11-20T08:53:34;0.40;99.90
51733;DHT22;39139;53.144;6.244;2022-11-20T08:56:00;0.40;99.90
51733;DHT22;39139;53.144;6.244;2022-11-20T08:58:26;0.50;99.90
51733;DHT22;39139;53.144;6.244;2022-11-20T09:00:52;0.50;99.90
51733;DHT22;39139;53.144;6.244;2022-11-20T09:03:18;0.40;99.90
51733;DHT22;39139;53.144;6.244;2022-11-20T09:05:44;0.40;99.90
51733;DHT22;39139;53.144;6.244;2022-11-20T09:08:09;0.40;99.90
51733;DHT22;39139;53.144;6.244;2022-11-20T09:10:35;0.30;99.90
51733;DHT22;39139;53.144;6.244;2022-11-20T09:13:02;0.50;99.90
51733;DHT22;39139;53.144;6.244;2022-11-20T09:15:28;0.60;99.90
51733;DHT22;39139;53.144;6.244;2022-11-20T09:17:58;0.60;99.90
51733;DHT22;39139;53.144;6.244;2022-11-20T09:20:25;0.70;99.90
51733;DHT22;39139;53.144;6.244;2022-11-20T09:22:51;0.70;99.90
51733;DHT22;39139;53.144;6.244;2022-11-20T09:25:17;0.70;99.90
51733;DHT22;39139;53.144;6.244;2022-11-20T09:27:43;0.80;99.90
51733;DHT22;39139;53.144;6.244;2022-11-20T09:30:12;1.00;99.90
51733;DHT22;39139;53.144;6.244;2022-11-20T09:32:44;1.00;99.90
51733;DHT22;39139;53.144;6.244;2022-11-20T09:35:10;1.00;99.90
51733;DHT22;39139;53.144;6.244;2022-11-20T09:37:35;1.10;99.90
51733;DHT22;39139;53.144;6.244;2022-11-20T09:40:01;1.20;99.90
51733;DHT22;39139;53.144;6.244;2022-11-20T09:42:41;1.20;99.90
51733;DHT22;39139;53.144;6.244;2022-11-20T09:56:14;1.30;99.90
51733;DHT22;39139;53.144;6.244;2022-11-20T09:58:44;1.40;99.90
51733;DHT22;39139;53.144;6.244;2022-11-20T10:01:21;1.40;99.90
51733;DHT22;39139;53.144;6.244;2022-11-20T10:04:06;1.50;99.90
51733;DHT22;39139;53.144;6.244;2022-11-20T10:07:11;1.70;99.90
51733;DHT22;39139;53.144;6.244;2022-11-20T10:09:40;1.80;99.90
51733;DHT22;39139;53.144;6.244;2022-11-20T10:12:27;1.80;99.90
51733;DHT22;39139;53.144;6.244;2022-11-20T10:15:15;2.00;99.90
51733;DHT22;39139;53.144;6.244;2022-11-20T10:29:15;3.40;99.90
51733;DHT22;39139;53.144;6.244;2022-11-20T10:31:44;4.40;99.90
51733;DHT22;39139;53.144;6.244;2022-11-20T10:34:25;5.10;99.90
51733;DHT22;39139;53.144;6.244;2022-11-20T10:37:05;5.60;99.90
51733;DHT22;39139;53.144;6.244;2022-11-20T10:42:46;5.90;99.90
51733;DHT22;39139;53.144;6.244;2022-11-20T10:47:52;5.40;99.90
51733;DHT22;39139;53.144;6.244;2022-11-20T10:50:21;5.10;99.90
51733;DHT22;39139;53.144;6.244;2022-11-20T10:55:54;5.10;99.90
51733;DHT22;39139;53.144;6.244;2022-11-20T11:01:18;5.20;99.90
51733;DHT22;39139;53.144;6.244;2022-11-20T11:03:48;5.60;99.90
51733;DHT22;39139;53.144;6.244;2022-11-20T11:06:17;5.70;99.90
51733;DHT22;39139;53.144;6.244;2022-11-20T11:08:47;5.60;99.90
51733;DHT22;39139;53.144;6.244;2022-11-20T11:13:51;5.40;99.90
51733;DHT22;39139;53.144;6.244;2022-11-20T11:16:25;5.30;99.90
51733;DHT22;39139;53.144;6.244;2022-11-20T11:18:51;5.10;99.90
51733;DHT22;39139;53.144;6.244;2022-11-20T11:21:25;4.90;99.90
51733;DHT22;39139;53.144;6.244;2022-11-20T11:24:03;4.80;99.90
51733;DHT22;39139;53.144;6.244;2022-11-20T11:26:29;4.50;99.90
51733;DHT22;39139;53.144;6.244;2022-11-20T11:29:00;4.50;99.90
51733;DHT22;39139;53.144;6.244;2022-11-20T11:31:28;4.30;99.90
51733;DHT22;39139;53.144;6.244;2022-11-20T11:34:05;4.30;99.90
51733;DHT22;39139;53.144;6.244;2022-11-20T11:36:33;4.10;99.90
51733;DHT22;39139;53.144;6.244;2022-11-20T11:39:00;4.00;99.90
51733;DHT22;39139;53.144;6.244;2022-11-20T11:41:30;3.90;99.90
51733;DHT22;39139;53.144;6.244;2022-11-20T11:44:01;4.00;99.90
51733;DHT22;39139;53.144;6.244;2022-11-20T11:46:55;4.20;99.90
51733;DHT22;39139;53.144;6.244;2022-11-20T11:49:22;4.60;99.90
51733;DHT22;39139;53.144;6.244;2022-11-20T11:55:00;4.60;99.90
51733;DHT22;39139;53.144;6.244;2022-11-20T12:00:18;4.50;99.90
51733;DHT22;39139;53.144;6.244;2022-11-20T12:10:20;4.30;99.90
51733;DHT22;39139;53.144;6.244;2022-11-20T12:12:59;4.10;99.90
51733;DHT22;39139;53.144;6.244;2022-11-20T12:15:30;4.20;99.90
51733;DHT22;39139;53.144;6.244;2022-11-20T12:17:56;4.30;99.90
51733;DHT22;39139;53.144;6.244;2022-11-20T12:20:26;4.30;99.90
51733;DHT22;39139;53.144;6.244;2022-11-20T12:25:27;4.10;99.90
51733;DHT22;39139;53.144;6.244;2022-11-20T12:36:44;3.80;99.90
51733;DHT22;39139;53.144;6.244;2022-11-20T12:58:42;4.00;99.90
51733;DHT22;39139;53.144;6.244;2022-11-20T13:06:53;4.00;99.90
51733;DHT22;39139;53.144;6.244;2022-11-20T13:09:20;3.80;99.90
51733;DHT22;39139;53.144;6.244;2022-11-20T13:11:57;3.90;99.90
51733;DHT22;39139;53.144;6.244;2022-11-20T13:17:47;4.00;99.90
51733;DHT22;39139;53.144;6.244;2022-11-20T13:20:18;4.00;99.90
51733;DHT22;39139;53.144;6.244;2022-11-20T13:22:54;4.00;99.90
51733;DHT22;39139;53.144;6.244;2022-11-20T13:25:30;4.10;99.90
51733;DHT22;39139;53.144;6.244;2022-11-20T13:27:58;4.10;99.90
51733;DHT22;39139;53.144;6.244;2022-11-20T13:30:26;4.10;99.90
51733;DHT22;39139;53.144;6.244;2022-11-20T13:32:54;4.10;99.90
51733;DHT22;39139;53.144;6.244;2022-11-20T13:35:32;4.00;99.90
51733;DHT22;39139;53.144;6.244;2022-11-20T13:40:30;4.00;99.90
51733;DHT22;39139;53.144;6.244;2022-11-20T13:43:28;3.90;99.90
51733;DHT22;39139;53.144;6.244;2022-11-20T13:46:03;3.90;99.90
51733;DHT22;39139;53.144;6.244;2022-11-20T13:48:40;3.90;99.90
51733;DHT22;39139;53.144;6.244;2022-11-20T13:59:58;3.80;99.90
51733;DHT22;39139;53.144;6.244;2022-11-20T14:02:27;3.70;99.90
51733;DHT22;39139;53.144;6.244;2022-11-20T14:04:57;3.70;99.90
51733;DHT22;39139;53.144;6.244;2022-11-20T14:07:27;3.60;99.90
51733;DHT22;39139;53.144;6.244;2022-11-20T14:09:57;3.60;99.90
51733;DHT22;39139;53.144;6.244;2022-11-20T14:12:31;3.60;99.90
51733;DHT22;39139;53.144;6.244;2022-11-20T14:14:58;3.50;99.90
51733;DHT22;39139;53.144;6.244;2022-11-20T14:17:31;3.50;99.90
51733;DHT22;39139;53.144;6.244;2022-11-20T14:20:15;3.50;99.90
51733;DHT22;39139;53.144;6.244;2022-11-20T14:22:53;3.50;99.90
51733;DHT22;39139;53.144;6.244;2022-11-20T14:25:24;3.40;99.90
51733;DHT22;39139;53.144;6.244;2022-11-20T14:27:57;3.40;99.90
51733;DHT22;39139;53.144;6.244;2022-11-20T14:30:29;3.30;99.90
51733;DHT22;39139;53.144;6.244;2022-11-20T14:33:03;3.30;99.90
51733;DHT22;39139;53.144;6.244;2022-11-20T14:35:31;3.80;99.90
51733;DHT22;39139;53.144;6.244;2022-11-20T14:38:01;3.20;99.90
51733;DHT22;39139;53.144;6.244;2022-11-20T14:40:35;3.20;99.90
51733;DHT22;39139;53.144;6.244;2022-11-20T14:43:04;3.20;99.90
51733;DHT22;39139;53.144;6.244;2022-11-20T14:45:40;3.10;99.90
51733;DHT22;39139;53.144;6.244;2022-11-20T14:48:09;3.10;99.90
51733;DHT22;39139;53.144;6.244;2022-11-20T14:50:38;3.10;99.90
51733;DHT22;39139;53.144;6.244;2022-11-20T14:53:04;3.00;99.90
51733;DHT22;39139;53.144;6.244;2022-11-20T14:55:37;3.00;99.90
51733;DHT22;39139;53.144;6.244;2022-11-20T14:58:22;3.00;99.90
51733;DHT22;39139;53.144;6.244;2022-11-20T15:01:06;2.90;99.90
51733;DHT22;39139;53.144;6.244;2022-11-20T15:03:37;2.90;99.90
51733;DHT22;39139;53.144;6.244;2022-11-20T15:06:04;3.50;99.90
51733;DHT22;39139;53.144;6.244;2022-11-20T15:08:30;2.80;99.90
51733;DHT22;39139;53.144;6.244;2022-11-20T15:10:56;2.80;99.90
51733;DHT22;39139;53.144;6.244;2022-11-20T15:13:33;2.80;99.90
51733;DHT22;39139;53.144;6.244;2022-11-20T15:16:01;2.80;99.90
51733;DHT22;39139;53.144;6.244;2022-11-20T15:18:38;2.70;99.90
51733;DHT22;39139;53.144;6.244;2022-11-20T15:21:11;2.80;99.90
51733;DHT22;39139;53.144;6.244;2022-11-20T15:23:37;2.70;99.90
51733;DHT22;39139;53.144;6.244;2022-11-20T15:26:07;2.70;99.90
51733;DHT22;39139;53.144;6.244;2022-11-20T15:31:01;2.70;99.90
51733;DHT22;39139;53.144;6.244;2022-11-20T15:33:28;2.70;99.90
51733;DHT22;39139;53.144;6.244;2022-11-20T15:35:54;2.70;99.90
51733;DHT22;39139;53.144;6.244;2022-11-20T15:38:19;2.70;99.90
51733;DHT22;39139;53.144;6.244;2022-11-20T15:40:45;2.60;99.90
51733;DHT22;39139;53.144;6.244;2022-11-20T15:43:11;2.60;99.90
51733;DHT22;39139;53.144;6.244;2022-11-20T15:45:47;2.60;99.90
51733;DHT22;39139;53.144;6.244;2022-11-20T15:53:41;2.50;99.90
51733;DHT22;39139;53.144;6.244;2022-11-20T15:56:14;2.60;99.90
51733;DHT22;39139;53.144;6.244;2022-11-20T15:58:40;2.60;99.90
51733;DHT22;39139;53.144;6.244;2022-11-20T16:01:11;2.60;99.90
51733;DHT22;39139;53.144;6.244;2022-11-20T16:03:37;2.50;99.90
51733;DHT22;39139;53.144;6.244;2022-11-20T16:06:02;2.50;99.90
51733;DHT22;39139;53.144;6.244;2022-11-20T16:08:28;2.50;99.90
51733;DHT22;39139;53.144;6.244;2022-11-20T16:10:54;2.50;99.90
51733;DHT22;39139;53.144;6.244;2022-11-20T16:13:19;2.50;99.90
51733;DHT22;39139;53.144;6.244;2022-11-20T16:16:07;2.50;99.90
51733;DHT22;39139;53.144;6.244;2022-11-20T16:18:34;2.00;99.90
51733;DHT22;39139;53.144;6.244;2022-11-20T16:21:00;2.50;99.90
51733;DHT22;39139;53.144;6.244;2022-11-20T16:23:25;2.50;99.90
51733;DHT22;39139;53.144;6.244;2022-11-20T16:25:51;2.50;99.90
51733;DHT22;39139;53.144;6.244;2022-11-20T16:28:17;2.50;99.90
51733;DHT22;39139;53.144;6.244;2022-11-20T16:30:43;2.50;99.90
51733;DHT22;39139;53.144;6.244;2022-11-20T16:33:11;2.50;99.90
51733;DHT22;39139;53.144;6.244;2022-11-20T16:35:37;2.50;99.90
51733;DHT22;39139;53.144;6.244;2022-11-20T16:38:03;2.40;99.90
51733;DHT22;39139;53.144;6.244;2022-11-20T16:40:29;2.40;99.90
51733;DHT22;39139;53.144;6.244;2022-11-20T16:42:55;2.40;99.90
51733;DHT22;39139;53.144;6.244;2022-11-20T16:45:20;2.40;99.90
51733;DHT22;39139;53.144;6.244;2022-11-20T16:47:46;2.40;99.90
51733;DHT22;39139;53.144;6.244;2022-11-20T16:50:12;2.30;99.90
51733;DHT22;39139;53.144;6.244;2022-11-20T16:52:38;2.40;99.90
51733;DHT22;39139;53.144;6.244;2022-11-20T16:55:04;2.40;99.90
51733;DHT22;39139;53.144;6.244;2022-11-20T16:57:30;2.30;99.90
51733;DHT22;39139;53.144;6.244;2022-11-20T16:59:58;2.30;99.90
51733;DHT22;39139;53.144;6.244;2022-11-20T17:02:24;2.30;99.90
51733;DHT22;39139;53.144;6.244;2022-11-20T17:04:51;4.20;99.90
51733;DHT22;39139;53.144;6.244;2022-11-20T17:07:16;2.30;99.90
51733;DHT22;39139;53.144;6.244;2022-11-20T17:09:42;2.20;99.90
51733;DHT22;39139;53.144;6.244;2022-11-20T17:12:08;2.30;99.90
51733;DHT22;39139;53.144;6.244;2022-11-20T17:14:34;2.20;99.90
51733;DHT22;39139;53.144;6.244;2022-11-20T17:16:59;2.20;99.90
51733;DHT22;39139;53.144;6.244;2022-11-20T17:19:25;2.20;99.90
51733;DHT22;39139;53.144;6.244;2022-11-20T17:21:51;2.20;99.90
51733;DHT22;39139;53.144;6.244;2022-11-20T17:24:16;2.10;99.90
51733;DHT22;39139;53.144;6.244;2022-11-20T17:26:43;2.10;99.90
51733;DHT22;39139;53.144;6.244;2022-11-20T17:29:14;2.10;99.90
51733;DHT22;39139;53.144;6.244;2022-11-20T17:31:41;3.20;99.90
51733;DHT22;39139;53.144;6.244;2022-11-20T17:34:08;2.10;99.90
51733;DHT22;39139;53.144;6.244;2022-11-20T17:36:35;2.00;99.90
51733;DHT22;39139;53.144;6.244;2022-11-20T17:39:01;2.10;99.90
51733;DHT22;39139;53.144;6.244;2022-11-20T17:41:28;2.50;99.90